Time;durP1;ratioP1;P1;durP2;ratioP2;P2;SDS_P1;SDS_P2;PMS_P1;PMS_P2;Temp;Humidity;BMP_temperature;BMP_pressure;BME280_temperature;BME280_humidity;BME280_pressure;Samples;Min_cycle;Max_cycle;Signal;HPM_P1;HPM_P2
2023/09/15 00:00:52;;;;;;;22.98;20.77;;;8.20;99.90;;;;;;4961479;28;20118;-83
2023/09/15 00:03:19;;;;;;;22.05;20.08;;;8.10;99.90;;;;;;4982425;28;20045;-82
2023/09/15 00:05:46;;;;;;;22.73;20.52;;;8.00;99.90;;;;;;4952518;28;20142;-82
2023/09/15 00:08:13;;;;;;;21.60;19.70;;;8.10;99.90;;;;;;4966026;28;20104;-85
2023/09/15 00:10:40;;;;;;;22.67;20.38;;;8.00;99.90;;;;;;4972362;28;20034;-84
2023/09/15 00:13:07;;;;;;;33.17;21.10;;;8.10;99.90;;;;;;4972711;28;20047;-82
2023/09/15 00:15:35;;;;;;;22.80;20.65;;;8.10;99.90;;;;;;4964666;28;20054;-84
2023/09/15 00:18:02;;;;;;;22.35;20.35;;;8.00;99.90;;;;;;4962423;28;20055;-82
2023/09/15 00:20:30;;;;;;;21.67;19.85;;;8.00;99.90;;;;;;4981662;28;20661;-85
2023/09/15 00:22:57;;;;;;;21.90;19.80;;;8.20;99.90;;;;;;4968895;28;20167;-85
2023/09/15 00:25:28;;;;;;;23.70;21.33;;;8.20;99.90;;;;;;4981155;28;20151;-83
2023/09/15 00:27:59;;;;;;;23.15;21.35;;;8.40;99.90;;;;;;4974533;28;20133;-85
2023/09/15 00:30:27;;;;;;;22.25;20.45;;;8.30;99.90;;;;;;5046016;28;20050;-82
2023/09/15 00:32:55;;;;;;;23.10;20.90;;;8.20;99.90;;;;;;4970801;28;20034;-85
2023/09/15 00:35:26;;;;;;;21.50;19.67;;;8.20;99.90;;;;;;4970434;28;20074;-83
2023/09/15 00:37:55;;;;;;;23.55;21.10;;;8.20;99.90;;;;;;4966940;28;20149;-83
2023/09/15 00:40:23;;;;;;;22.52;20.50;;;8.10;99.90;;;;;;4979808;28;20522;-85
2023/09/15 00:42:51;;;;;;;22.45;20.60;;;8.10;99.90;;;;;;4963658;28;20039;-84
2023/09/15 00:45:19;;;;;;;21.83;20.13;;;8.10;99.90;;;;;;4968221;28;20400;-83
2023/09/15 00:47:50;;;;;;;21.00;19.25;;;8.10;99.90;;;;;;4959235;28;20042;-82
2023/09/15 00:50:24;;;;;;;22.58;20.67;;;8.00;99.90;;;;;;4969226;28;20058;-83
2023/09/15 00:53:01;;;;;;;23.75;21.33;;;8.00;99.90;;;;;;4969885;28;20041;-87
2023/09/15 00:55:29;;;;;;;25.52;23.05;;;8.10;99.90;;;;;;5012704;28;20138;-81
2023/09/15 00:57:56;;;;;;;25.02;22.38;;;8.20;99.90;;;;;;4989505;28;20042;-86
2023/09/15 01:00:23;;;;;;;23.85;21.63;;;8.30;99.90;;;;;;4963467;28;20058;-85
2023/09/15 01:02:50;;;;;;;22.55;20.80;;;8.20;99.90;;;;;;5033699;28;20125;-82
2023/09/15 01:05:23;;;;;;;24.02;21.55;;;8.10;99.90;;;;;;4979901;28;20038;-82
2023/09/15 01:07:53;;;;;;;22.73;20.85;;;8.10;99.90;;;;;;4981341;28;20044;-81
2023/09/15 01:10:22;;;;;;;25.55;22.95;;;8.30;99.90;;;;;;4978543;28;20042;-81
2023/09/15 01:12:51;;;;;;;23.67;21.65;;;8.40;99.90;;;;;;4966022;28;20062;-87
2023/09/15 01:15:20;;;;;;;23.20;21.10;;;8.30;99.90;;;;;;4968756;28;20046;-84
2023/09/15 01:18:22;;;;;;;27.90;22.77;;;8.30;99.90;;;;;;4967089;28;20038;-81
2023/09/15 01:20:57;;;;;;;22.88;20.70;;;8.20;99.90;;;;;;4966906;28;20543;-82
2023/09/15 01:23:50;;;;;;;24.40;22.10;;;8.10;99.90;;;;;;5043063;28;20137;-82
2023/09/15 01:26:44;;;;;;;24.48;21.95;;;8.20;99.90;;;;;;4980043;28;20061;-81
2023/09/15 01:29:40;;;;;;;24.75;22.42;;;8.40;99.90;;;;;;4961870;28;20073;-82
2023/09/15 01:32:09;;;;;;;22.58;20.55;;;8.40;99.90;;;;;;4978999;28;20039;-82
2023/09/15 01:34:37;;;;;;;23.08;20.73;;;8.20;99.90;;;;;;4989381;28;20044;-82
2023/09/15 01:37:04;;;;;;;23.17;21.15;;;8.10;99.90;;;;;;4981573;28;20042;-86
2023/09/15 01:39:31;;;;;;;23.77;21.80;;;8.00;99.90;;;;;;4964444;28;20047;-82
2023/09/15 01:41:59;;;;;;;25.17;22.88;;;8.10;99.90;;;;;;4965255;28;20138;-88
2023/09/15 01:44:27;;;;;;;26.17;23.48;;;8.20;99.90;;;;;;5003253;28;20060;-85
2023/09/15 01:46:54;;;;;;;27.70;24.10;;;8.20;99.90;;;;;;4952813;28;20439;-86
2023/09/15 01:49:21;;;;;;;26.75;24.10;;;8.20;99.90;;;;;;4961434;28;20053;-84
2023/09/15 01:51:49;;;;;;;27.92;25.17;;;8.30;99.90;;;;;;4964023;28;20050;-82
2023/09/15 01:54:16;;;;;;;27.13;24.30;;;8.40;99.90;;;;;;4974623;28;20132;-84
2023/09/15 01:56:44;;;;;;;31.40;24.58;;;8.40;99.90;;;;;;4987994;28;20132;-82
2023/09/15 01:59:13;;;;;;;29.95;24.42;;;8.60;99.90;;;;;;4965498;28;20050;-83
2023/09/15 02:01:39;;;;;;;26.92;24.10;;;8.70;99.90;;;;;;4973269;28;20530;-85
2023/09/15 02:04:06;;;;;;;26.45;23.38;;;8.70;99.90;;;;;;4968296;28;20043;-84
2023/09/15 02:06:33;;;;;;;31.65;23.88;;;8.70;99.90;;;;;;4951976;28;20039;-81
2023/09/15 02:09:00;;;;;;;32.60;24.55;;;8.70;99.90;;;;;;4964589;28;20055;-86
2023/09/15 02:11:27;;;;;;;26.63;24.02;;;8.70;99.90;;;;;;4990972;28;20542;-82
2023/09/15 02:13:53;;;;;;;25.75;23.02;;;8.70;99.90;;;;;;4967192;28;20049;-88
2023/09/15 02:16:20;;;;;;;27.50;24.50;;;8.80;99.90;;;;;;4973448;28;20048;-86
2023/09/15 02:18:47;;;;;;;27.00;23.50;;;8.80;99.90;;;;;;4986598;28;20050;-83
2023/09/15 02:21:14;;;;;;;31.48;24.27;;;8.80;99.90;;;;;;4970323;28;20058;-86
2023/09/15 02:23:41;;;;;;;26.83;24.00;;;8.80;99.90;;;;;;4964519;28;20043;-82
2023/09/15 02:26:08;;;;;;;27.75;24.88;;;8.90;99.90;;;;;;4951915;28;20057;-81
2023/09/15 02:28:35;;;;;;;31.80;25.80;;;8.90;99.90;;;;;;4951173;28;20057;-85
2023/09/15 02:31:06;;;;;;;28.25;25.35;;;8.90;99.90;;;;;;5049001;28;20045;-82
2023/09/15 02:33:34;;;;;;;27.95;24.48;;;8.90;99.90;;;;;;4978870;28;20062;-84
2023/09/15 02:36:03;;;;;;;31.95;25.65;;;8.90;99.90;;;;;;4960154;28;20043;-83
2023/09/15 02:38:30;;;;;;;26.92;24.17;;;8.90;99.90;;;;;;4967859;28;20837;-83
2023/09/15 02:40:57;;;;;;;28.90;25.88;;;8.80;99.90;;;;;;4984578;28;20572;-85
2023/09/15 02:43:23;;;;;;;37.42;25.70;;;8.90;99.90;;;;;;4969160;28;20572;-86
2023/09/15 02:45:50;;;;;;;26.98;24.17;;;9.00;99.90;;;;;;4966304;28;20047;-85
2023/09/15 02:48:17;;;;;;;27.23;24.15;;;9.10;99.90;;;;;;4966851;28;20646;-84
2023/09/15 02:50:45;;;;;;;27.63;24.40;;;9.10;99.90;;;;;;4972130;28;20042;-82
2023/09/15 02:53:12;;;;;;;28.75;24.58;;;9.20;99.90;;;;;;4965974;28;20061;-83
2023/09/15 02:55:39;;;;;;;28.00;24.92;;;9.10;99.90;;;;;;4981296;28;20119;-86
2023/09/15 02:58:06;;;;;;;29.80;26.55;;;9.10;99.90;;;;;;4956880;28;20516;-85
2023/09/15 03:00:33;;;;;;;29.98;26.65;;;9.10;99.90;;;;;;4981729;28;20467;-85
2023/09/15 03:03:00;;;;;;;29.05;25.95;;;9.20;99.90;;;;;;4959738;28;20058;-84
2023/09/15 03:05:27;;;;;;;29.30;26.40;;;9.10;99.90;;;;;;4977284;28;20053;-84
2023/09/15 03:07:55;;;;;;;30.38;26.88;;;9.20;99.90;;;;;;4953452;28;20089;-88
2023/09/15 03:10:22;;;;;;;30.42;26.90;;;9.10;99.90;;;;;;4972080;28;20846;-84
2023/09/15 03:12:51;;;;;;;29.88;26.75;;;9.10;99.90;;;;;;4975845;28;20061;-83
2023/09/15 03:15:18;;;;;;;35.63;28.73;;;9.10;99.90;;;;;;4971673;28;20112;-83
2023/09/15 03:17:45;;;;;;;32.58;28.13;;;9.10;99.90;;;;;;4971582;28;20050;-83
2023/09/15 03:20:15;;;;;;;35.65;29.35;;;9.20;99.90;;;;;;4970536;28;20043;-82
2023/09/15 03:22:43;;;;;;;35.28;29.40;;;9.20;99.90;;;;;;4963837;28;20671;-82
2023/09/15 03:25:10;;;;;;;37.33;29.65;;;9.20;99.90;;;;;;4984612;28;20062;-88
2023/09/15 03:27:39;;;;;;;35.00;28.73;;;9.20;99.90;;;;;;4967045;28;20103;-82
2023/09/15 03:30:06;;;;;;;36.08;29.13;;;9.30;99.90;;;;;;4962407;28;20051;-83
2023/09/15 03:32:34;;;;;;;32.15;27.25;;;9.30;99.90;;;;;;4967320;28;20079;-84
2023/09/15 03:35:02;;;;;;;37.20;30.10;;;9.20;99.90;;;;;;4961778;28;20050;-81
2023/09/15 03:37:30;;;;;;;35.03;28.73;;;9.20;99.90;;;;;;4972880;28;20436;-83
2023/09/15 03:39:57;;;;;;;34.08;29.30;;;9.10;99.90;;;;;;4990705;28;20058;-87
2023/09/15 03:42:24;;;;;;;38.50;29.75;;;9.20;99.90;;;;;;4984055;28;20050;-89
2023/09/15 03:44:51;;;;;;;35.92;29.60;;;9.20;99.90;;;;;;4955900;28;20058;-82
2023/09/15 03:47:18;;;;;;;32.22;28.90;;;9.20;99.90;;;;;;4949376;28;20050;-85
2023/09/15 03:49:45;;;;;;;37.58;29.42;;;9.20;99.90;;;;;;4974258;28;20049;-84
2023/09/15 03:52:12;;;;;;;35.78;30.40;;;9.20;99.90;;;;;;4957745;28;20035;-83
2023/09/15 03:54:38;;;;;;;38.63;30.27;;;9.20;99.90;;;;;;4962645;28;20064;-82
2023/09/15 03:57:05;;;;;;;36.20;31.02;;;9.50;99.90;;;;;;4951848;28;20044;-86
2023/09/15 03:59:34;;;;;;;36.05;31.52;;;9.50;99.90;;;;;;4964213;28;20154;-84
2023/09/15 04:02:03;;;;;;;36.78;30.77;;;9.50;99.90;;;;;;4957736;28;20125;-82
2023/09/15 04:04:30;;;;;;;34.33;30.85;;;9.50;99.90;;;;;;4965364;28;20054;-85
2023/09/15 04:06:57;;;;;;;33.35;29.52;;;9.50;99.90;;;;;;4964004;28;20675;-86
2023/09/15 04:09:24;;;;;;;36.53;29.67;;;9.50;99.90;;;;;;4960286;28;20043;-83
2023/09/15 04:11:53;;;;;;;37.83;29.55;;;9.50;99.90;;;;;;4975340;28;20046;-85
2023/09/15 04:14:21;;;;;;;34.55;30.77;;;9.40;99.90;;;;;;4952682;28;20070;-88
2023/09/15 04:16:48;;;;;;;35.97;30.48;;;9.40;99.90;;;;;;4975459;28;20047;-83
2023/09/15 04:19:15;;;;;;;35.15;30.70;;;9.40;99.90;;;;;;4982308;28;20337;-84
2023/09/15 04:21:42;;;;;;;33.22;29.63;;;9.30;99.90;;;;;;4975085;28;20172;-85
2023/09/15 04:24:09;;;;;;;37.03;32.28;;;9.30;99.90;;;;;;4967308;28;20644;-88
2023/09/15 04:26:36;;;;;;;40.28;30.42;;;9.30;99.90;;;;;;4991214;28;20042;-85
2023/09/15 04:29:02;;;;;;;38.67;32.20;;;9.30;99.90;;;;;;4964485;28;20058;-82
2023/09/15 04:31:30;;;;;;;35.67;30.88;;;9.20;99.90;;;;;;4969946;28;20085;-88
2023/09/15 04:33:57;;;;;;;47.00;33.55;;;9.10;99.90;;;;;;4965527;28;20068;-87
2023/09/15 04:36:24;;;;;;;44.05;32.13;;;9.20;99.90;;;;;;4968694;28;20043;-84
2023/09/15 04:38:51;;;;;;;48.80;33.63;;;9.10;99.90;;;;;;4958354;28;20887;-83
2023/09/15 04:41:17;;;;;;;42.30;34.15;;;9.00;99.90;;;;;;4960868;28;20074;-82
2023/09/15 04:43:44;;;;;;;42.08;35.00;;;9.00;99.90;;;;;;4962453;28;20046;-84
2023/09/15 04:46:11;;;;;;;53.85;37.65;;;9.10;99.90;;;;;;4963447;28;20046;-86
2023/09/15 04:48:39;;;;;;;51.67;34.67;;;9.10;99.90;;;;;;4960583;28;20049;-84
2023/09/15 04:51:06;;;;;;;43.53;37.03;;;9.10;99.90;;;;;;4967016;28;20049;-82
2023/09/15 04:53:33;;;;;;;55.85;38.10;;;9.10;99.90;;;;;;4966589;28;20041;-86
2023/09/15 04:56:03;;;;;;;54.80;37.92;;;9.10;99.90;;;;;;5002207;28;20046;-82
2023/09/15 04:58:31;;;;;;;52.97;37.80;;;9.20;99.90;;;;;;4970605;28;20451;-83
2023/09/15 05:01:03;;;;;;;49.28;37.47;;;9.20;99.90;;;;;;4958063;28;20056;-82
2023/09/15 05:03:32;;;;;;;50.00;38.90;;;9.30;99.90;;;;;;4983641;28;20069;-82
2023/09/15 05:06:00;;;;;;;46.60;36.25;;;9.30;99.90;;;;;;5045170;28;20450;-87
2023/09/15 05:08:26;;;;;;;49.03;36.63;;;9.20;99.90;;;;;;4985110;28;20079;-81
2023/09/15 05:10:53;;;;;;;47.90;36.17;;;9.10;99.90;;;;;;4993931;28;20175;-84
2023/09/15 05:13:20;;;;;;;48.97;37.50;;;9.10;99.90;;;;;;4971236;28;20575;-85
2023/09/15 05:15:47;;;;;;;50.97;38.50;;;9.10;99.90;;;;;;4984736;28;20070;-84
2023/09/15 05:18:14;;;;;;;42.92;36.42;;;9.10;99.90;;;;;;4976859;28;20042;-84
2023/09/15 05:20:40;;;;;;;43.15;34.97;;;9.10;99.90;;;;;;4956086;28;20071;-85
2023/09/15 05:23:07;;;;;;;46.55;35.90;;;9.10;99.90;;;;;;4985168;28;20858;-86
2023/09/15 05:25:34;;;;;;;48.58;36.83;;;9.10;99.90;;;;;;4946082;28;20050;-85
2023/09/15 05:28:02;;;;;;;44.45;35.55;;;9.10;99.90;;;;;;4961356;28;20050;-83
2023/09/15 05:30:31;;;;;;;49.75;37.13;;;9.10;99.90;;;;;;4953920;28;20080;-82
2023/09/15 05:32:58;;;;;;;43.65;36.05;;;9.10;99.90;;;;;;4962722;28;20169;-86
2023/09/15 05:35:26;;;;;;;47.08;37.38;;;9.20;99.90;;;;;;5031530;28;20102;-83
2023/09/15 05:37:55;;;;;;;48.35;38.25;;;9.20;99.90;;;;;;4964923;28;20052;-84
2023/09/15 05:40:22;;;;;;;50.05;38.47;;;9.20;99.90;;;;;;4969207;28;20050;-82
2023/09/15 05:42:49;;;;;;;53.65;39.83;;;9.30;99.90;;;;;;4957246;28;20629;-82
2023/09/15 05:45:16;;;;;;;51.15;39.40;;;9.20;99.90;;;;;;4960553;28;20043;-83
2023/09/15 05:47:43;;;;;;;49.00;37.92;;;9.30;99.90;;;;;;4990825;28;20046;-83
2023/09/15 05:50:10;;;;;;;52.25;40.28;;;9.40;99.90;;;;;;4980422;28;20075;-85
2023/09/15 05:52:37;;;;;;;57.20;40.03;;;9.40;99.90;;;;;;4961199;28;20044;-83
2023/09/15 05:55:04;;;;;;;47.80;37.72;;;9.50;99.90;;;;;;4982325;28;20054;-83
2023/09/15 05:57:31;;;;;;;56.20;39.08;;;9.50;99.90;;;;;;4959072;28;20046;-84
2023/09/15 05:59:58;;;;;;;43.55;36.17;;;9.60;99.90;;;;;;4978964;28;21516;-86
2023/09/15 06:02:25;;;;;;;43.97;37.45;;;9.70;99.90;;;;;;4955480;28;20053;-80
2023/09/15 06:04:52;;;;;;;45.20;36.13;;;9.80;99.90;;;;;;4970972;28;20049;-82
2023/09/15 06:07:18;;;;;;;49.60;36.42;;;9.90;99.90;;;;;;4977957;28;20054;-81
2023/09/15 06:09:47;;;;;;;48.67;36.72;;;9.90;99.90;;;;;;4958740;28;20034;-82
2023/09/15 06:12:14;;;;;;;42.35;34.22;;;10.00;99.90;;;;;;4964084;28;20129;-83
2023/09/15 06:14:41;;;;;;;41.00;33.40;;;10.10;99.90;;;;;;4970034;28;20061;-81
2023/09/15 06:17:07;;;;;;;40.92;35.40;;;10.10;99.90;;;;;;4965368;28;20046;-81
2023/09/15 06:19:34;;;;;;;41.75;34.58;;;10.20;99.90;;;;;;4968164;28;20593;-80
2023/09/15 06:22:05;;;;;;;42.20;33.78;;;10.20;99.90;;;;;;4965604;28;20042;-81
2023/09/15 06:24:32;;;;;;;43.50;35.17;;;10.30;99.90;;;;;;4975311;28;20042;-79
2023/09/15 06:26:58;;;;;;;36.95;33.20;;;10.40;99.90;;;;;;4962228;28;20042;-82
2023/09/15 06:29:25;;;;;;;38.28;34.40;;;10.50;99.90;;;;;;4970818;28;20046;-80
2023/09/15 06:31:52;;;;;;;40.20;33.08;;;10.60;99.90;;;;;;4970812;28;20132;-80
2023/09/15 06:34:19;;;;;;;37.67;33.63;;;10.60;99.90;;;;;;4946592;28;20163;-79
2023/09/15 06:36:46;;;;;;;35.67;31.80;;;10.80;99.90;;;;;;4965931;28;20050;-80
2023/09/15 06:39:12;;;;;;;36.45;32.05;;;10.90;99.90;;;;;;4965479;28;20050;-79
2023/09/15 06:42:31;;;;;;;36.22;32.55;;;10.90;99.90;;;;;;4955568;28;20496;-75
2023/09/15 06:44:58;;;;;;;34.40;30.92;;;11.10;99.90;;;;;;4991140;28;20126;-83
2023/09/15 06:47:24;;;;;;;35.03;31.63;;;11.20;99.90;;;;;;4974462;28;20053;-82
2023/09/15 06:49:51;;;;;;;34.35;31.05;;;11.40;99.90;;;;;;4983031;28;20022;-82
2023/09/15 06:52:19;;;;;;;34.30;31.10;;;11.40;99.90;;;;;;4976990;28;20780;-79
2023/09/15 06:54:45;;;;;;;34.10;30.60;;;11.50;99.90;;;;;;4997960;28;20142;-78
2023/09/15 06:57:12;;;;;;;33.20;29.48;;;11.60;99.90;;;;;;4990693;28;20084;-80
2023/09/15 06:59:39;;;;;;;30.35;27.55;;;11.70;99.90;;;;;;4977217;28;20042;-79
2023/09/15 07:02:06;;;;;;;29.33;26.42;;;11.70;99.90;;;;;;4993895;28;20096;-80
2023/09/15 07:04:33;;;;;;;33.03;25.00;;;11.80;99.90;;;;;;4987332;28;20054;-79
2023/09/15 07:07:00;;;;;;;29.95;25.98;;;11.90;99.90;;;;;;4983850;28;20048;-78
2023/09/15 07:09:27;;;;;;;26.77;23.98;;;12.00;99.90;;;;;;4983636;28;20637;-79
2023/09/15 07:11:54;;;;;;;24.10;21.88;;;12.20;99.90;;;;;;4976698;28;20660;-78
2023/09/15 07:14:20;;;;;;;22.38;20.15;;;12.20;99.90;;;;;;4989839;28;20057;-79
2023/09/15 07:16:48;;;;;;;21.83;19.80;;;12.30;99.90;;;;;;4988151;28;20107;-80
2023/09/15 07:19:15;;;;;;;23.85;21.25;;;12.60;99.90;;;;;;4992831;28;20587;-81
2023/09/15 07:21:43;;;;;;;22.10;19.90;;;12.80;99.90;;;;;;4990812;28;20047;-78
2023/09/15 07:24:11;;;;;;;21.88;19.83;;;13.00;99.90;;;;;;4978700;28;20841;-80
2023/09/15 07:26:38;;;;;;;23.35;21.40;;;13.20;99.90;;;;;;4998043;28;20044;-80
2023/09/15 07:29:05;;;;;;;22.90;20.80;;;13.50;99.90;;;;;;4987333;28;20130;-80
2023/09/15 07:31:35;;;;;;;24.45;22.30;;;13.70;99.90;;;;;;4959173;28;20047;-79
2023/09/15 07:34:03;;;;;;;24.60;22.60;;;14.00;99.90;;;;;;4978301;28;20047;-81
2023/09/15 07:36:30;;;;;;;24.70;22.60;;;14.10;99.90;;;;;;4981403;28;20173;-82
2023/09/15 07:38:57;;;;;;;26.85;24.73;;;14.30;99.90;;;;;;4975165;28;20062;-83
2023/09/15 07:41:24;;;;;;;27.67;24.92;;;14.60;99.90;;;;;;4972069;28;20046;-80
2023/09/15 07:43:55;;;;;;;26.38;24.30;;;14.60;99.90;;;;;;4991761;28;20054;-79
2023/09/15 07:46:22;;;;;;;25.63;23.50;;;14.60;99.90;;;;;;5002281;28;20081;-81
2023/09/15 07:48:49;;;;;;;27.15;24.80;;;14.90;99.90;;;;;;4973786;28;20048;-81
2023/09/15 07:51:16;;;;;;;25.88;23.90;;;15.10;99.90;;;;;;4958902;28;20050;-79
2023/09/15 07:53:44;;;;;;;27.27;25.13;;;15.30;99.90;;;;;;4977564;28;20121;-79
2023/09/15 07:56:11;;;;;;;26.45;24.55;;;15.20;99.90;;;;;;4978287;28;20064;-79
2023/09/15 07:58:38;;;;;;;27.17;24.85;;;15.30;99.90;;;;;;4964318;28;20126;-80
2023/09/15 08:01:06;;;;;;;27.15;24.92;;;15.00;99.90;;;;;;4967612;28;20048;-80
2023/09/15 08:03:33;;;;;;;27.08;24.88;;;14.90;99.90;;;;;;4963165;28;20062;-80
2023/09/15 08:06:00;;;;;;;28.33;26.20;;;15.20;99.90;;;;;;4968236;28;20116;-81
2023/09/15 08:08:28;;;;;;;26.85;24.80;;;15.40;99.90;;;;;;5020953;28;20050;-81
2023/09/15 08:10:55;;;;;;;27.30;25.27;;;15.50;99.90;;;;;;4978723;28;20046;-80
2023/09/15 08:13:22;;;;;;;27.25;25.35;;;15.40;99.90;;;;;;4974517;28;20057;-81
2023/09/15 08:15:51;;;;;;;31.17;29.00;;;15.80;99.90;;;;;;4970939;28;20085;-80
2023/09/15 08:18:19;;;;;;;31.02;28.63;;;16.00;99.90;;;;;;4963076;28;20258;-82
2023/09/15 08:20:46;;;;;;;30.38;28.05;;;16.20;99.90;;;;;;4963245;28;20044;-80
2023/09/15 08:23:13;;;;;;;28.67;26.88;;;16.70;99.90;;;;;;4988819;28;20059;-79
2023/09/15 08:25:40;;;;;;;31.20;29.08;;;16.40;99.90;;;;;;4978843;28;20133;-76
2023/09/15 08:28:07;;;;;;;32.70;30.23;;;16.50;99.90;;;;;;4981600;28;20528;-75
2023/09/15 08:30:35;;;;;;;30.20;27.90;;;16.40;99.90;;;;;;4958330;28;20046;-75
2023/09/15 08:33:02;;;;;;;31.05;28.98;;;16.70;99.90;;;;;;4947337;28;20051;-76
2023/09/15 08:35:30;;;;;;;30.80;28.58;;;16.90;99.90;;;;;;4969890;28;20063;-75
2023/09/15 08:37:56;;;;;;;30.15;28.15;;;17.30;99.90;;;;;;4959710;28;20645;-76
2023/09/15 08:40:23;;;;;;;30.98;28.98;;;17.50;99.90;;;;;;4961600;28;21095;-75
2023/09/15 08:42:50;;;;;;;30.67;28.63;;;17.50;99.90;;;;;;4969427;28;20133;-76
2023/09/15 08:45:19;;;;;;;30.48;28.23;;;17.40;99.90;;;;;;4957739;28;20046;-76
2023/09/15 08:47:47;;;;;;;31.30;29.08;;;17.70;99.90;;;;;;4978609;28;20050;-76
2023/09/15 08:50:15;;;;;;;31.70;29.15;;;17.70;99.90;;;;;;4963517;28;20058;-76
2023/09/15 08:52:42;;;;;;;31.20;29.08;;;17.60;99.90;;;;;;4974405;28;20104;-76
2023/09/15 08:55:09;;;;;;;32.58;30.23;;;17.20;99.90;;;;;;4980898;28;20051;-76
2023/09/15 08:57:39;;;;;;;32.13;29.98;;;17.10;99.90;;;;;;4970921;28;20042;-76
2023/09/15 09:00:08;;;;;;;32.55;30.00;;;17.30;99.90;;;;;;4971312;28;20066;-76
2023/09/15 09:02:35;;;;;;;32.38;30.20;;;17.30;99.90;;;;;;5021453;28;20046;-76
2023/09/15 09:05:03;;;;;;;32.97;30.58;;;17.60;99.90;;;;;;4975160;28;20046;-75
2023/09/15 09:07:29;;;;;;;33.47;30.85;;;17.90;99.90;;;;;;4955994;28;20136;-75
2023/09/15 09:09:57;;;;;;;32.58;30.25;;;17.90;99.90;;;;;;4982764;28;20049;-76
2023/09/15 09:12:24;;;;;;;32.90;30.50;;;17.90;99.90;;;;;;4960525;28;20046;-76
2023/09/15 09:14:55;;;;;;;30.55;28.55;;;17.90;99.90;;;;;;4964532;28;20047;-76
2023/09/15 09:17:22;;;;;;;32.88;30.73;;;18.00;99.90;;;;;;4972401;28;20054;-76
2023/09/15 09:19:50;;;;;;;31.73;29.52;;;18.10;99.90;;;;;;4958878;28;20051;-76
2023/09/15 09:22:17;;;;;;;32.88;30.67;;;18.20;99.90;;;;;;4961044;28;20431;-76
2023/09/15 09:24:52;;;;;;;31.70;29.38;;;18.10;99.90;;;;;;4974102;28;20059;-78
2023/09/15 09:27:19;;;;;;;31.13;28.98;;;18.40;99.90;;;;;;4955403;28;20617;-76
2023/09/15 09:29:46;;;;;;;32.70;29.70;;;19.00;99.90;;;;;;4973681;28;20046;-76
2023/09/15 09:32:14;;;;;;;31.15;29.17;;;19.20;99.90;;;;;;4976441;28;20047;-79
2023/09/15 09:34:41;;;;;;;30.80;28.65;;;19.00;99.90;;;;;;4963711;28;20042;-76
2023/09/15 09:37:14;;;;;;;30.08;27.83;;;18.80;99.90;;;;;;4959167;28;20039;-78
2023/09/15 09:39:41;;;;;;;31.27;28.98;;;18.80;99.90;;;;;;4981245;28;20058;-77
2023/09/15 09:42:10;;;;;;;30.67;28.42;;;18.90;99.90;;;;;;4975369;28;20043;-77
2023/09/15 09:44:37;;;;;;;31.35;29.25;;;19.30;99.90;;;;;;4943255;28;20061;-77
2023/09/15 09:47:09;;;;;;;32.45;30.35;;;19.40;99.90;;;;;;4951997;28;20051;-76
2023/09/15 09:49:37;;;;;;;32.88;30.60;;;19.40;99.90;;;;;;4960826;28;21268;-76
2023/09/15 09:52:04;;;;;;;31.15;29.00;;;19.90;99.90;;;;;;4977690;28;20042;-76
2023/09/15 09:54:33;;;;;;;31.70;29.23;;;20.10;99.90;;;;;;4961966;28;20400;-77
2023/09/15 09:57:02;;;;;;;32.25;30.00;;;19.90;99.90;;;;;;4964125;28;20054;-76
2023/09/15 09:59:29;;;;;;;31.58;29.48;;;19.60;99.90;;;;;;4960420;28;20037;-76
2023/09/15 10:01:55;;;;;;;32.10;29.80;;;19.60;99.90;;;;;;4981657;28;20042;-77
2023/09/15 10:04:22;;;;;;;31.50;29.40;;;20.00;99.90;;;;;;4975476;28;20124;-77
2023/09/15 10:06:49;;;;;;;34.22;31.60;;;19.80;99.90;;;;;;4953875;28;20119;-76
2023/09/15 10:09:18;;;;;;;34.40;32.05;;;19.70;99.90;;;;;;4942310;28;20053;-77
2023/09/15 10:11:46;;;;;;;31.80;29.70;;;19.60;99.90;;;;;;4965946;28;20069;-76
2023/09/15 10:14:13;;;;;;;30.45;28.35;;;19.60;99.90;;;;;;4973928;28;20053;-77
2023/09/15 10:16:40;;;;;;;31.30;28.98;;;19.90;99.90;;;;;;4970859;28;20046;-76
2023/09/15 10:19:09;;;;;;;32.03;29.83;;;19.90;99.90;;;;;;4967135;28;20042;-77
2023/09/15 10:21:36;;;;;;;33.00;30.70;;;20.20;99.90;;;;;;5038878;28;20051;-77
2023/09/15 10:24:08;;;;;;;32.17;30.27;;;20.00;99.90;;;;;;4964231;28;20035;-78
2023/09/15 10:26:41;;;;;;;33.38;31.08;;;20.10;99.90;;;;;;4965930;28;20042;-77
2023/09/15 10:29:12;;;;;;;33.35;31.02;;;19.90;99.90;;;;;;4957894;28;20039;-77
2023/09/15 10:31:44;;;;;;;33.15;30.85;;;20.00;99.90;;;;;;4974119;28;20069;-77
2023/09/15 10:34:11;;;;;;;33.80;31.60;;;19.60;99.90;;;;;;4976357;28;20045;-77
2023/09/15 10:36:39;;;;;;;33.67;31.25;;;19.50;99.90;;;;;;4971677;28;20117;-77
2023/09/15 10:39:12;;;;;;;33.53;31.13;;;19.50;99.90;;;;;;4947536;28;20047;-76
2023/09/15 10:41:40;;;;;;;31.83;29.60;;;19.70;99.90;;;;;;5032171;28;20121;-77
2023/09/15 10:44:07;;;;;;;33.83;31.10;;;20.10;99.90;;;;;;4962071;28;20042;-77
2023/09/15 10:46:35;;;;;;;32.20;29.83;;;20.10;99.90;;;;;;4984966;28;20038;-77
2023/09/15 10:49:16;;;;;;;32.63;30.13;;;19.90;99.90;;;;;;4957429;28;20138;-77
2023/09/15 10:52:00;;;;;;;30.95;28.77;;;20.20;99.90;;;;;;4964488;28;20047;-77
2023/09/15 10:54:32;;;;;;;31.30;29.20;;;20.30;99.90;;;;;;4958631;28;20050;-77
2023/09/15 10:57:00;;;;;;;32.15;29.92;;;20.20;99.90;;;;;;4971359;28;20081;-77
2023/09/15 10:59:27;;;;;;;31.63;29.33;;;20.30;99.90;;;;;;4957218;28;20072;-77
2023/09/15 11:01:55;;;;;;;31.63;29.48;;;20.50;99.90;;;;;;4978033;28;20101;-77
2023/09/15 11:04:22;;;;;;;33.97;31.23;;;20.40;99.90;;;;;;4987710;28;20061;-80
2023/09/15 11:06:51;;;;;;;33.05;30.67;;;20.60;99.90;;;;;;4975630;28;20534;-78
2023/09/15 11:09:19;;;;;;;32.53;30.13;;;20.60;99.90;;;;;;4958786;28;20391;-78
2023/09/15 11:11:47;;;;;;;32.28;29.88;;;20.90;99.90;;;;;;4955501;28;20580;-77
2023/09/15 11:14:22;;;;;;;29.98;28.08;;;21.20;99.90;;;;;;4957625;28;20046;-77
2023/09/15 11:16:51;;;;;;;29.70;27.80;;;21.00;99.90;;;;;;4963570;28;20063;-78
2023/09/15 11:19:19;;;;;;;31.20;29.00;;;21.20;99.90;;;;;;4964168;28;20046;-78
2023/09/15 11:21:47;;;;;;;31.70;29.23;;;21.20;99.90;;;;;;4963451;28;20538;-78
2023/09/15 11:24:15;;;;;;;30.38;28.15;;;21.20;99.90;;;;;;4963079;28;20523;-78
2023/09/15 11:26:50;;;;;;;30.48;28.13;;;21.40;99.90;;;;;;4958044;28;20049;-78
2023/09/15 11:29:23;;;;;;;30.48;28.50;;;21.60;99.90;;;;;;4972293;28;20054;-78
2023/09/15 11:31:51;;;;;;;29.58;27.50;;;21.70;99.90;;;;;;4964585;28;20042;-77
2023/09/15 11:34:19;;;;;;;29.73;27.83;;;21.60;99.90;;;;;;4960009;28;20465;-78
2023/09/15 11:36:49;;;;;;;31.38;29.10;;;21.60;99.90;;;;;;4945842;28;20135;-77
2023/09/15 11:39:16;;;;;;;30.67;28.52;;;21.60;99.90;;;;;;4948547;28;20078;-78
2023/09/15 11:41:52;;;;;;;30.23;28.23;;;21.50;99.90;;;;;;4958466;28;20649;-77
2023/09/15 11:44:26;;;;;;;30.52;28.52;;;21.20;99.90;;;;;;4962081;28;20042;-78
2023/09/15 11:46:55;;;;;;;28.75;26.90;;;21.10;99.90;;;;;;4973179;28;20345;-77
2023/09/15 11:49:24;;;;;;;28.83;26.75;;;21.40;99.90;;;;;;4963973;28;20042;-78
2023/09/15 11:51:55;;;;;;;28.35;26.55;;;21.40;99.90;;;;;;5010543;28;20043;-78
2023/09/15 11:54:23;;;;;;;29.98;28.02;;;21.50;99.90;;;;;;4966486;28;20117;-78
2023/09/15 11:56:50;;;;;;;28.10;26.10;;;21.70;99.90;;;;;;4967193;28;20046;-77
2023/09/15 11:59:17;;;;;;;27.98;25.98;;;21.80;99.90;;;;;;4990710;28;20044;-77
2023/09/15 12:01:46;;;;;;;28.17;26.20;;;21.80;99.90;;;;;;4961938;28;20648;-78
2023/09/15 12:04:14;;;;;;;27.83;26.13;;;21.90;99.90;;;;;;4976588;28;20046;-78
2023/09/15 12:06:42;;;;;;;29.30;27.23;;;21.80;99.90;;;;;;5035878;28;20129;-77
2023/09/15 12:09:12;;;;;;;27.80;25.75;;;21.60;99.90;;;;;;4971023;28;20057;-78
2023/09/15 12:11:44;;;;;;;27.15;25.55;;;21.70;99.90;;;;;;4960130;28;20046;-77
2023/09/15 12:14:15;;;;;;;28.40;26.40;;;21.90;99.90;;;;;;4982166;28;20061;-78
2023/09/15 12:16:46;;;;;;;28.52;26.60;;;21.70;99.90;;;;;;4960155;28;20049;-77
2023/09/15 12:19:15;;;;;;;28.08;26.25;;;21.60;99.90;;;;;;4959414;28;20042;-78
2023/09/15 12:21:52;;;;;;;28.65;26.75;;;21.70;99.90;;;;;;5022424;28;20070;-78
2023/09/15 12:24:23;;;;;;;29.63;27.25;;;21.70;99.90;;;;;;4981757;28;20160;-78
2023/09/15 12:26:51;;;;;;;28.90;27.20;;;21.30;99.90;;;;;;4967457;28;20066;-77
2023/09/15 12:29:18;;;;;;;28.40;26.65;;;21.60;99.90;;;;;;4953344;28;20072;-77
2023/09/15 12:31:45;;;;;;;29.38;27.33;;;21.70;99.90;;;;;;4962359;28;20042;-77
2023/09/15 12:34:19;;;;;;;28.73;26.92;;;21.60;99.90;;;;;;4959208;28;20046;-76
2023/09/15 12:36:47;;;;;;;26.45;24.85;;;21.60;99.90;;;;;;4969809;28;20073;-76